Time;durP1;ratioP1;P1;durP2;ratioP2;P2;SDS_P1;SDS_P2;PMS_P1;PMS_P2;Temp;Humidity;BMP_temperature;BMP_pressure;BME280_temperature;BME280_humidity;BME280_pressure;Samples;Min_cycle;Max_cycle;Signal;HPM_P1;HPM_P2
2024/02/07 00:00:07;;;;;;;4.40;1.77;;;;;16.70;99253.00;;;;2077830;28;20210;-61
2024/02/07 00:01:07;;;;;;;3.70;1.80;;;;;16.70;99258.00;;;;2075797;28;20212;-60
2024/02/07 00:02:08;;;;;;;3.50;1.70;;;;;16.70;99268.00;;;;2077521;28;20222;-61
2024/02/07 00:03:08;;;;;;;2.90;1.40;;;;;16.60;99256.00;;;;2077594;28;20973;-61
2024/02/07 00:04:09;;;;;;;2.37;1.23;;;;;16.70;99249.00;;;;2067752;28;20728;-60
2024/02/07 00:05:09;;;;;;;4.00;1.60;;;;;16.70;99248.00;;;;2077870;28;20686;-60
2024/02/07 00:06:12;;;;;;;3.47;1.70;;;;;16.70;99243.00;;;;2074764;28;20255;-59
2024/02/07 00:07:12;;;;;;;2.50;1.30;;;;;16.00;99236.00;;;;2077528;28;20912;-60
2024/02/07 00:08:13;;;;;;;3.80;1.53;;;;;16.60;99245.00;;;;2075784;28;20218;-60
2024/02/07 00:09:13;;;;;;;3.00;1.40;;;;;16.70;99248.00;;;;2067857;28;20252;-61
2024/02/07 00:10:13;;;;;;;2.73;1.20;;;;;16.60;99259.00;;;;2077764;28;20247;-60
2024/02/07 00:11:14;;;;;;;2.40;1.50;;;;;16.70;99243.00;;;;2071001;28;20219;-60
2024/02/07 00:12:14;;;;;;;3.10;1.50;;;;;16.60;99236.00;;;;2075717;28;20218;-59
2024/02/07 00:13:14;;;;;;;2.27;1.13;;;;;16.70;99241.00;;;;2080165;28;20304;-59
2024/02/07 00:14:15;;;;;;;2.80;1.47;;;;;16.60;99245.00;;;;2069526;28;20222;-60
2024/02/07 00:15:15;;;;;;;4.17;2.20;;;;;16.60;99245.00;;;;2077179;28;20211;-59
2024/02/07 00:16:15;;;;;;;2.43;1.23;;;;;16.70;99243.00;;;;2070014;28;20269;-60
2024/02/07 00:17:16;;;;;;;4.03;1.60;;;;;16.60;99252.00;;;;2075911;28;20211;-60
2024/02/07 00:18:17;;;;;;;3.10;1.50;;;;;16.60;99248.00;;;;2075207;28;20226;-59
2024/02/07 00:19:18;;;;;;;2.60;1.38;;;;;16.70;99243.00;;;;2068096;28;20225;-60
2024/02/07 00:20:18;;;;;;;4.00;1.50;;;;;16.60;99239.00;;;;2076943;28;20215;-60
2024/02/07 00:21:18;;;;;;;2.37;1.47;;;;;16.60;99241.00;;;;2077701;28;20226;-59
2024/02/07 00:22:19;;;;;;;3.50;1.50;;;;;16.60;99250.00;;;;2074952;28;20242;-60
2024/02/07 00:23:19;;;;;;;2.73;1.10;;;;;16.60;99243.00;;;;2070946;28;20222;-60
2024/02/07 00:24:19;;;;;;;2.80;1.20;;;;;16.70;99232.00;;;;2066561;28;20273;-59
2024/02/07 00:25:19;;;;;;;4.83;1.60;;;;;16.60;99242.00;;;;2077202;28;20249;-60
2024/02/07 00:26:20;;;;;;;3.37;1.73;;;;;16.60;99245.00;;;;2076334;28;20228;-60
2024/02/07 00:27:20;;;;;;;3.60;1.33;;;;;16.60;99229.00;;;;2076649;28;20238;-60
2024/02/07 00:28:20;;;;;;;4.53;1.83;;;;;16.60;99234.00;;;;2074070;28;20241;-59
2024/02/07 00:29:21;;;;;;;3.80;1.10;;;;;16.60;99227.00;;;;2069772;28;20230;-60
2024/02/07 00:30:21;;;;;;;3.30;1.47;;;;;16.70;99218.00;;;;2086376;28;23010;-60
2024/02/07 00:31:22;;;;;;;3.40;1.67;;;;;16.70;99226.00;;;;2083113;28;20233;-61
2024/02/07 00:32:22;;;;;;;4.53;1.37;;;;;16.70;99223.00;;;;2076614;28;20224;-60
2024/02/07 00:33:22;;;;;;;1.90;1.00;;;;;16.70;99231.00;;;;2076895;28;20674;-59
2024/02/07 00:34:23;;;;;;;3.50;1.40;;;;;16.70;99214.00;;;;2070532;28;20829;-60
2024/02/07 00:35:23;;;;;;;3.80;1.80;;;;;16.70;99215.00;;;;2078497;28;20888;-60
2024/02/07 00:36:23;;;;;;;3.10;1.20;;;;;16.60;99220.00;;;;2073427;28;20257;-59
2024/02/07 00:37:24;;;;;;;3.37;1.50;;;;;16.70;99205.00;;;;2072866;28;20223;-59
2024/02/07 00:38:24;;;;;;;3.83;1.03;;;;;16.60;99209.00;;;;2077537;28;20217;-61
2024/02/07 00:39:24;;;;;;;2.57;1.30;;;;;16.70;99205.00;;;;2067078;28;20718;-60
2024/02/07 00:40:25;;;;;;;2.67;1.10;;;;;16.70;99193.00;;;;2070072;28;20229;-60
2024/02/07 00:41:26;;;;;;;4.33;1.47;;;;;16.70;99203.00;;;;2076066;28;20214;-59
2024/02/07 00:42:26;;;;;;;3.20;1.17;;;;;16.60;99198.00;;;;2077305;28;20245;-60
2024/02/07 00:43:26;;;;;;;3.20;1.50;;;;;16.60;99192.00;;;;2071332;28;20461;-61
2024/02/07 00:44:27;;;;;;;3.17;1.93;;;;;16.60;99186.00;;;;2067181;28;20273;-60
2024/02/07 00:45:30;;;;;;;2.50;1.30;;;;;16.60;99220.00;;;;2077103;28;20218;-61
2024/02/07 00:46:31;;;;;;;4.40;1.50;;;;;16.20;99206.00;;;;2069334;28;20784;-61
2024/02/07 00:47:32;;;;;;;3.35;1.30;;;;;16.60;99213.00;;;;2077559;28;20299;-60
2024/02/07 00:48:32;;;;;;;2.73;1.50;;;;;16.60;99204.00;;;;2076907;28;20675;-60
2024/02/07 00:49:32;;;;;;;3.93;1.50;;;;;16.60;99202.00;;;;2066032;28;20272;-61
2024/02/07 00:50:33;;;;;;;2.80;1.43;;;;;16.60;99209.00;;;;2077127;28;20220;-60
2024/02/07 00:51:33;;;;;;;2.27;1.20;;;;;16.70;99202.00;;;;2077560;28;20583;-59
2024/02/07 00:52:33;;;;;;;4.57;1.10;;;;;16.70;98980.00;;;;2076801;28;20663;-60
2024/02/07 00:53:34;;;;;;;3.73;1.30;;;;;16.60;99196.00;;;;2082015;28;20867;-60
2024/02/07 00:54:34;;;;;;;3.10;1.37;;;;;16.60;99195.00;;;;2067112;28;20892;-61
2024/02/07 00:55:34;;;;;;;2.73;1.20;;;;;16.70;99198.00;;;;2076689;28;20237;-61
2024/02/07 00:56:35;;;;;;;2.23;1.20;;;;;16.70;99205.00;;;;2075643;28;20603;-60
2024/02/07 00:57:35;;;;;;;4.30;1.37;;;;;16.60;99194.00;;;;2076622;28;20624;-60
2024/02/07 00:58:36;;;;;;;3.20;1.53;;;;;16.60;99208.00;;;;2076548;28;20206;-59
2024/02/07 00:59:36;;;;;;;3.00;1.23;;;;;16.70;99193.00;;;;2067187;28;20214;-60
2024/02/07 01:00:36;;;;;;;3.20;1.57;;;;;16.70;99175.00;;;;2076058;28;20329;-59
2024/02/07 01:01:37;;;;;;;3.13;1.20;;;;;16.60;99190.00;;;;2069660;28;20297;-60
2024/02/07 01:02:37;;;;;;;2.37;1.17;;;;;16.60;99184.00;;;;2076139;28;20235;-60
2024/02/07 01:03:37;;;;;;;3.03;1.13;;;;;16.60;99186.00;;;;2076701;28;20217;-61
2024/02/07 01:04:38;;;;;;;3.53;1.40;;;;;16.60;99189.00;;;;2062088;28;20217;-60
2024/02/07 01:05:38;;;;;;;2.83;1.13;;;;;16.70;99187.00;;;;2076032;28;20237;-59
2024/02/07 01:06:39;;;;;;;2.53;1.53;;;;;16.70;99189.00;;;;2076828;28;20234;-61
2024/02/07 01:07:39;;;;;;;3.60;1.57;;;;;16.70;99198.00;;;;2075189;28;20877;-59
2024/02/07 01:08:39;;;;;;;4.53;2.00;;;;;16.70;99194.00;;;;2077308;28;20211;-60
2024/02/07 01:09:40;;;;;;;2.80;1.27;;;;;16.60;99192.00;;;;2066748;28;20240;-60
2024/02/07 01:10:42;;;;;;;2.90;1.50;;;;;16.60;99188.00;;;;2077118;28;20683;-60
2024/02/07 01:11:42;;;;;;;2.95;1.42;;;;;16.60;99186.00;;;;2072364;28;20207;-60
2024/02/07 01:12:42;;;;;;;2.30;1.30;;;;;16.60;99189.00;;;;2076835;28;20223;-59
2024/02/07 01:13:43;;;;;;;2.40;1.33;;;;;16.60;99188.00;;;;2076708;28;20214;-60
2024/02/07 01:14:43;;;;;;;4.33;1.70;;;;;16.60;99190.00;;;;2065764;28;20225;-59
2024/02/07 01:15:44;;;;;;;3.50;1.90;;;;;16.60;99170.00;;;;2075951;28;20214;-60
2024/02/07 01:16:44;;;;;;;3.33;1.60;;;;;16.60;99171.00;;;;2076552;28;20208;-60
2024/02/07 01:17:44;;;;;;;3.03;2.00;;;;;16.60;99179.00;;;;2077376;28;20202;-60
2024/02/07 01:18:45;;;;;;;2.73;1.53;;;;;16.60;99180.00;;;;2076600;28;20202;-58
2024/02/07 01:19:47;;;;;;;2.90;1.40;;;;;16.60;99178.00;;;;2067710;28;20240;-61
2024/02/07 01:20:48;;;;;;;2.67;1.10;;;;;16.60;99189.00;;;;2077502;28;20233;-59
2024/02/07 01:21:48;;;;;;;2.50;1.50;;;;;16.70;99170.00;;;;2076629;28;20215;-60
2024/02/07 01:22:48;;;;;;;2.63;1.33;;;;;16.60;99184.00;;;;2075602;28;20214;-61
2024/02/07 01:23:49;;;;;;;2.83;1.33;;;;;16.60;99167.00;;;;2075289;28;20631;-60
2024/02/07 01:24:49;;;;;;;5.10;1.60;;;;;16.60;99169.00;;;;2071833;28;20216;-60
2024/02/07 01:25:50;;;;;;;2.77;1.63;;;;;16.70;99183.00;;;;2081435;28;20213;-60
2024/02/07 01:26:50;;;;;;;2.80;1.10;;;;;16.60;99167.00;;;;2075171;28;20210;-61
2024/02/07 01:27:51;;;;;;;4.20;1.83;;;;;16.60;99167.00;;;;2077306;28;20229;-60
2024/02/07 01:28:51;;;;;;;2.90;1.30;;;;;16.60;99178.00;;;;2076699;28;20627;-59
2024/02/07 01:29:51;;;;;;;2.53;1.40;;;;;16.60;99167.00;;;;2067446;28;20625;-61
2024/02/07 01:30:52;;;;;;;2.20;1.17;;;;;16.60;99170.00;;;;2076866;28;20222;-60
2024/02/07 01:31:52;;;;;;;4.57;1.63;;;;;16.60;99177.00;;;;2077530;28;20209;-59
2024/02/07 01:32:52;;;;;;;2.90;1.23;;;;;16.60;99168.00;;;;2076506;28;20233;-60
2024/02/07 01:33:55;;;;;;;2.17;1.40;;;;;16.60;99178.00;;;;2075259;28;20211;-59
2024/02/07 01:34:55;;;;;;;4.22;1.50;;;;;16.60;99179.00;;;;2066272;28;20226;-61
2024/02/07 01:35:56;;;;;;;3.60;1.80;;;;;16.60;99167.00;;;;2075665;28;20215;-59
2024/02/07 01:36:57;;;;;;;2.70;1.70;;;;;16.60;99165.00;;;;2076940;28;20897;-60
2024/02/07 01:38:04;;;;;;;4.43;1.65;;;;;16.70;99183.00;;;;2076182;28;20220;-59
2024/02/07 01:39:05;;;;;;;2.90;1.20;;;;;16.60;99159.00;;;;2073556;28;20222;-61
2024/02/07 01:40:12;;;;;;;2.87;1.30;;;;;16.60;99171.00;;;;2073449;28;20217;-60
2024/02/07 01:41:13;;;;;;;2.15;1.02;;;;;16.70;99183.00;;;;2076996;28;20214;-59
2024/02/07 01:42:13;;;;;;;3.30;1.30;;;;;16.70;99202.00;;;;2076356;28;20231;-61
2024/02/07 01:43:13;;;;;;;3.13;1.47;;;;;16.60;99174.00;;;;2076683;28;20215;-62
2024/02/07 01:44:14;;;;;;;2.43;1.10;;;;;16.60;99164.00;;;;2066950;28;20698;-60
2024/02/07 01:45:30;;;;;;;2.37;1.40;;;;;16.60;99157.00;;;;2076594;28;20226;-59
2024/02/07 01:46:32;;;;;;;2.90;1.20;;;;;16.60;99160.00;;;;2074378;28;20217;-59
2024/02/07 01:47:32;;;;;;;3.58;1.15;;;;;16.60;99176.00;;;;2075795;28;20207;-60
2024/02/07 01:48:33;;;;;;;2.97;2.07;;;;;16.70;99178.00;;;;2068542;28;20225;-60
2024/02/07 01:49:33;;;;;;;5.03;1.67;;;;;16.70;99185.00;;;;2060292;28;20229;-61
2024/02/07 01:50:40;;;;;;;2.03;1.00;;;;;16.70;99169.00;;;;2076226;28;20250;-60
2024/02/07 01:51:41;;;;;;;3.20;1.42;;;;;16.70;99158.00;;;;2068479;28;20770;-62
2024/02/07 01:52:42;;;;;;;2.97;1.63;;;;;16.20;99166.00;;;;2075898;28;20646;-60
2024/02/07 01:53:42;;;;;;;3.13;1.40;;;;;16.70;99177.00;;;;2076886;28;20221;-61
2024/02/07 01:54:42;;;;;;;2.50;1.20;;;;;16.70;99173.00;;;;2059499;28;20263;-60
2024/02/07 01:55:44;;;;;;;3.20;1.13;;;;;16.60;99167.00;;;;2074457;28;20679;-60
2024/02/07 01:56:45;;;;;;;2.85;1.40;;;;;16.70;99169.00;;;;2073657;28;20217;-61
2024/02/07 01:57:45;;;;;;;2.40;1.23;;;;;16.60;99167.00;;;;2073974;28;20226;-59
2024/02/07 01:58:45;;;;;;;2.57;1.30;;;;;16.60;99162.00;;;;2076206;28;20214;-59
2024/02/07 01:59:46;;;;;;;2.63;1.47;;;;;16.60;99168.00;;;;2058482;28;20294;-60
2024/02/07 02:00:46;;;;;;;1.90;1.10;;;;;16.60;99166.00;;;;2059358;28;20206;-59
2024/02/07 02:01:46;;;;;;;2.70;1.43;;;;;16.60;99162.00;;;;2075755;28;20208;-61
2024/02/07 02:02:48;;;;;;;3.13;1.43;;;;;16.60;99162.00;;;;2064655;28;20229;-60
2024/02/07 02:03:48;;;;;;;3.15;1.60;;;;;16.60;99179.00;;;;2067390;28;20224;-60
2024/02/07 02:04:49;;;;;;;2.87;1.10;;;;;16.70;99183.00;;;;2067534;28;20212;-60
2024/02/07 02:05:49;;;;;;;3.70;1.60;;;;;16.60;99175.00;;;;2075263;28;20212;-61
2024/02/07 02:06:50;;;;;;;4.07;2.00;;;;;16.60;99173.00;;;;2075436;28;20232;-59
2024/02/07 02:07:51;;;;;;;3.80;1.75;;;;;16.60;99180.00;;;;2070114;28;20210;-61
2024/02/07 02:08:54;;;;;;;2.67;1.10;;;;;16.60;99177.00;;;;2071049;28;20230;-59
2024/02/07 02:09:54;;;;;;;3.08;1.40;;;;;16.60;99145.00;;;;2066503;28;20211;-59
2024/02/07 02:10:57;;;;;;;2.20;1.40;;;;;16.60;99183.00;;;;2076224;28;20368;-59
2024/02/07 02:11:58;;;;;;;5.55;1.67;;;;;16.60;99169.00;;;;2068294;28;20260;-59
2024/02/07 02:12:58;;;;;;;3.83;1.07;;;;;16.60;99179.00;;;;2056760;28;20292;-59
2024/02/07 02:13:59;;;;;;;4.33;1.53;;;;;16.60;99162.00;;;;2070583;28;20229;-61
2024/02/07 02:14:59;;;;;;;2.30;1.30;;;;;16.60;99156.00;;;;2065919;28;20226;-61
2024/02/07 02:15:59;;;;;;;2.20;1.10;;;;;16.60;99165.00;;;;2067093;28;20765;-59
2024/02/07 02:17:00;;;;;;;3.43;1.73;;;;;16.60;99172.00;;;;2075359;28;20760;-59
2024/02/07 02:18:00;;;;;;;3.70;1.10;;;;;16.60;99162.00;;;;2067769;28;20210;-59
2024/02/07 02:19:01;;;;;;;3.00;1.37;;;;;16.60;99151.00;;;;2076513;28;20825;-60
2024/02/07 02:20:05;;;;;;;3.43;1.20;;;;;16.60;99162.00;;;;2066890;28;20215;-59
2024/02/07 02:21:06;;;;;;;2.55;1.33;;;;;16.70;99158.00;;;;2076439;28;20683;-59
2024/02/07 02:22:11;;;;;;;2.60;1.33;;;;;16.60;99153.00;;;;2068497;28;20219;-60
2024/02/07 02:23:11;;;;;;;2.17;1.10;;;;;16.60;99151.00;;;;2079498;28;20256;-60
2024/02/07 02:24:30;;;;;;;3.40;1.37;;;;;16.60;99155.00;;;;2066260;28;20226;-60
2024/02/07 02:25:37;;;;;;;2.60;1.40;;;;;16.60;99157.00;;;;2078472;28;20228;-59
2024/02/07 02:26:57;;;;;;;2.50;1.10;;;;;16.60;99147.00;;;;2078503;28;20226;-60
2024/02/07 02:28:24;;;;;;;3.08;1.00;;;;;16.60;99149.00;;;;2069722;28;20222;-60
2024/02/07 02:29:36;;;;;;;2.97;1.50;;;;;16.60;99154.00;;;;2065299;28;20238;-59
2024/02/07 02:30:47;;;;;;;2.92;1.10;;;;;16.60;99149.00;;;;2078076;28;20310;-59
2024/02/07 02:31:50;;;;;;;2.72;1.20;;;;;16.60;99150.00;;;;2077202;28;20233;-59
2024/02/07 02:32:50;;;;;;;2.45;1.40;;;;;16.60;99147.00;;;;2077306;28;20227;-60
2024/02/07 02:33:52;;;;;;;3.73;1.40;;;;;16.60;99137.00;;;;2072994;28;20206;-59
2024/02/07 02:34:53;;;;;;;2.95;1.27;;;;;16.60;99143.00;;;;2060320;28;20226;-59
2024/02/07 02:35:53;;;;;;;2.70;1.70;;;;;16.60;99147.00;;;;2068574;28;20772;-60
2024/02/07 02:36:54;;;;;;;2.57;1.47;;;;;16.60;99156.00;;;;2068520;28;20690;-61
2024/02/07 02:37:54;;;;;;;4.43;1.57;;;;;16.60;99147.00;;;;2069695;28;20724;-60
2024/02/07 02:38:54;;;;;;;2.47;1.63;;;;;16.60;99146.00;;;;2076091;28;20199;-60
2024/02/07 02:39:55;;;;;;;3.13;1.57;;;;;16.60;99131.00;;;;2069008;28;20250;-61
2024/02/07 02:40:55;;;;;;;3.60;1.40;;;;;16.60;99144.00;;;;2076900;28;20237;-60
2024/02/07 02:41:56;;;;;;;3.40;1.20;;;;;16.60;99137.00;;;;2078302;28;20216;-59
2024/02/07 02:42:57;;;;;;;3.57;1.67;;;;;16.60;99124.00;;;;2078465;28;20229;-60
2024/02/07 02:43:58;;;;;;;2.20;1.20;;;;;16.60;99133.00;;;;2076958;28;20477;-60
2024/02/07 02:44:58;;;;;;;2.40;1.47;;;;;16.60;99136.00;;;;2068825;28;20580;-59
2024/02/07 02:45:58;;;;;;;2.40;1.20;;;;;16.60;99146.00;;;;2074365;28;20740;-59
2024/02/07 02:47:01;;;;;;;2.40;1.20;;;;;16.60;99119.00;;;;2078780;28;20726;-61
2024/02/07 02:48:02;;;;;;;3.95;1.60;;;;;16.60;99124.00;;;;2077925;28;20206;-59
2024/02/07 02:49:03;;;;;;;2.20;1.10;;;;;16.60;99114.00;;;;2075767;28;20226;-60
2024/02/07 02:50:04;;;;;;;3.60;1.30;;;;;16.60;99116.00;;;;2068613;28;20461;-60
2024/02/07 02:51:04;;;;;;;2.77;1.40;;;;;16.60;99103.00;;;;2078622;28;20644;-60
2024/02/07 02:52:06;;;;;;;2.53;1.33;;;;;16.60;99109.00;;;;2078107;28;20936;-60
2024/02/07 02:53:06;;;;;;;3.33;1.42;;;;;16.60;99101.00;;;;2074189;28;20254;-60
2024/02/07 02:54:07;;;;;;;2.53;1.07;;;;;16.60;99103.00;;;;2068517;28;20914;-60
2024/02/07 02:55:08;;;;;;;2.67;1.00;;;;;16.60;99094.00;;;;2085029;28;20896;-61
2024/02/07 02:56:09;;;;;;;2.78;1.15;;;;;16.60;99097.00;;;;2084410;28;20269;-59
2024/02/07 02:57:10;;;;;;;2.83;1.20;;;;;16.60;99097.00;;;;2077674;28;20250;-60
2024/02/07 02:58:11;;;;;;;2.63;1.43;;;;;16.60;99091.00;;;;2071405;28;20221;-59
2024/02/07 02:59:12;;;;;;;2.65;1.10;;;;;16.60;99101.00;;;;2068665;28;20246;-60
2024/02/07 03:00:14;;;;;;;2.20;1.17;;;;;16.60;99097.00;;;;2077996;28;20720;-59
2024/02/07 03:01:14;;;;;;;1.92;1.17;;;;;16.60;99126.00;;;;2078391;28;20457;-60
2024/02/07 03:02:19;;;;;;;2.40;1.10;;;;;16.60;99186.00;;;;2074371;28;20210;-60
2024/02/07 03:03:20;;;;;;;4.32;1.40;;;;;16.70;99179.00;;;;2076608;28;20215;-59
2024/02/07 03:04:22;;;;;;;3.30;1.33;;;;;16.60;99151.00;;;;2068023;28;20261;-59
2024/02/07 03:06:58;;;;;;;2.40;0.98;;;;;16.60;99159.00;;;;2076630;28;20249;-59
2024/02/07 03:08:05;;;;;;;2.10;1.20;;;;;16.60;99131.00;;;;2077393;28;20390;-61
2024/02/07 03:09:19;;;;;;;2.20;1.30;;;;;16.60;99078.00;;;;2069917;28;20253;-59
2024/02/07 03:10:23;;;;;;;2.15;1.20;;;;;16.60;99124.00;;;;2077194;28;20717;-59
2024/02/07 03:11:23;;;;;;;4.30;1.48;;;;;16.60;99146.00;;;;2076458;28;20237;-60
2024/02/07 03:12:25;;;;;;;4.83;1.43;;;;;16.60;99159.00;;;;2077554;28;20221;-60
2024/02/07 03:13:25;;;;;;;3.13;1.40;;;;;16.60;99146.00;;;;2075299;28;20281;-59
2024/02/07 03:14:26;;;;;;;2.47;1.33;;;;;16.60;99126.00;;;;2067549;28;20243;-59
2024/02/07 03:15:26;;;;;;;2.73;1.10;;;;;16.60;99132.00;;;;2077912;28;20288;-60
2024/02/07 03:16:28;;;;;;;2.13;1.10;;;;;16.60;99139.00;;;;2076402;28;20214;-60
2024/02/07 03:17:29;;;;;;;4.25;1.20;;;;;16.60;99138.00;;;;2077939;28;20463;-61
2024/02/07 03:18:29;;;;;;;3.30;1.23;;;;;16.60;99099.00;;;;2077609;28;20265;-60
2024/02/07 03:19:30;;;;;;;3.10;1.40;;;;;16.60;99092.00;;;;2071358;28;20225;-59
2024/02/07 03:20:31;;;;;;;2.50;1.20;;;;;16.60;99172.00;;;;2085675;28;20225;-60
2024/02/07 03:21:31;;;;;;;3.63;1.27;;;;;16.60;99163.00;;;;2082197;28;20229;-60
2024/02/07 03:22:31;;;;;;;2.10;1.00;;;;;16.60;99163.00;;;;2078002;28;20210;-60
2024/02/07 03:23:32;;;;;;;2.43;1.20;;;;;16.60;99185.00;;;;2077280;28;20210;-60
2024/02/07 03:24:33;;;;;;;3.00;1.40;;;;;16.60;99195.00;;;;2068155;28;20231;-60
2024/02/07 03:25:36;;;;;;;2.73;1.40;;;;;16.60;99199.00;;;;2077357;28;20219;-60
2024/02/07 03:26:36;;;;;;;2.75;0.88;;;;;16.60;99191.00;;;;2076582;28;20302;-59
2024/02/07 03:27:39;;;;;;;2.27;1.20;;;;;16.60;99181.00;;;;2077598;28;20220;-60
2024/02/07 03:28:40;;;;;;;2.95;1.00;;;;;16.60;99177.00;;;;2077997;28;20433;-60
2024/02/07 03:29:40;;;;;;;4.87;1.20;;;;;16.60;99180.00;;;;2059575;28;20234;-59
2024/02/07 03:30:41;;;;;;;2.90;0.93;;;;;15.90;99167.00;;;;2076759;28;20221;-59
2024/02/07 03:31:43;;;;;;;2.10;1.00;;;;;16.60;99190.00;;;;2070740;28;20219;-60
2024/02/07 03:32:47;;;;;;;2.42;1.00;;;;;16.60;99194.00;;;;2077202;28;20313;-60
2024/02/07 03:33:47;;;;;;;2.30;1.30;;;;;16.60;99177.00;;;;2078031;28;20211;-60
2024/02/07 03:34:47;;;;;;;3.00;1.10;;;;;16.60;99189.00;;;;2067104;28;20234;-60
2024/02/07 03:35:48;;;;;;;4.50;1.10;;;;;16.60;99201.00;;;;2075781;28;20741;-60
2024/02/07 03:36:48;;;;;;;2.37;1.00;;;;;16.60;99188.00;;;;2078152;28;20214;-60
2024/02/07 03:37:48;;;;;;;3.23;1.70;;;;;16.60;99188.00;;;;2077414;28;20244;-59
2024/02/07 03:38:49;;;;;;;2.93;1.40;;;;;16.60;99204.00;;;;2078181;28;20226;-59
2024/02/07 03:39:49;;;;;;;2.90;0.93;;;;;16.60;99208.00;;;;2067865;28;20646;-60
2024/02/07 03:40:49;;;;;;;4.00;1.30;;;;;16.60;99191.00;;;;2078050;28;20277;-60
2024/02/07 03:41:50;;;;;;;2.20;1.10;;;;;16.60;99203.00;;;;2077530;28;20220;-61
2024/02/07 03:42:51;;;;;;;2.63;1.40;;;;;16.60;99206.00;;;;2078101;28;20244;-60
2024/02/07 03:43:51;;;;;;;3.47;1.20;;;;;16.60;99208.00;;;;2076393;28;20215;-60
2024/02/07 03:44:58;;;;;;;2.40;0.97;;;;;16.60;99225.00;;;;2064672;28;20465;-61
2024/02/07 03:45:58;;;;;;;2.40;1.05;;;;;16.60;99222.00;;;;2076286;28;20615;-59
2024/02/07 03:46:59;;;;;;;4.97;1.47;;;;;16.60;99216.00;;;;2077363;28;20213;-61
2024/02/07 03:48:00;;;;;;;2.10;1.00;;;;;16.60;99214.00;;;;2078254;28;20255;-60
2024/02/07 03:49:00;;;;;;;3.58;1.30;;;;;16.60;99202.00;;;;2077146;28;20298;-60
2024/02/07 03:50:05;;;;;;;3.20;1.37;;;;;16.60;99214.00;;;;2067302;28;20221;-59
2024/02/07 03:51:05;;;;;;;2.78;1.23;;;;;16.50;99219.00;;;;2075590;28;20211;-61
2024/02/07 03:52:06;;;;;;;2.43;0.97;;;;;16.60;99207.00;;;;2072169;28;20219;-59
2024/02/07 03:53:07;;;;;;;2.30;1.05;;;;;16.60;99206.00;;;;2078007;28;20231;-60
2024/02/07 03:54:09;;;;;;;2.42;1.00;;;;;16.60;99203.00;;;;2064579;28;20225;-59
2024/02/07 03:55:12;;;;;;;2.95;1.35;;;;;16.60;99209.00;;;;2085396;28;20319;-61
2024/02/07 03:56:12;;;;;;;2.60;1.27;;;;;16.60;99204.00;;;;2082300;28;20223;-59
2024/02/07 03:57:13;;;;;;;1.93;1.00;;;;;16.50;99201.00;;;;2077366;28;20222;-61
2024/02/07 03:58:13;;;;;;;3.27;1.00;;;;;16.60;99205.00;;;;2075533;28;20223;-60
2024/02/07 03:59:13;;;;;;;5.60;1.30;;;;;16.60;99215.00;;;;2063473;28;20232;-60
2024/02/07 04:00:14;;;;;;;2.97;1.50;;;;;16.60;99201.00;;;;2075414;28;20302;-61
2024/02/07 04:01:18;;;;;;;2.63;1.10;;;;;16.50;99213.00;;;;2077545;28;20314;-60
2024/02/07 04:02:21;;;;;;;3.28;0.90;;;;;16.60;99219.00;;;;2077578;28;20577;-58
2024/02/07 04:03:22;;;;;;;2.03;1.10;;;;;16.60;99223.00;;;;2080715;28;20222;-59
2024/02/07 04:04:22;;;;;;;2.30;0.87;;;;;16.60;99227.00;;;;2071458;28;21087;-59
2024/02/07 04:05:23;;;;;;;2.10;1.00;;;;;16.60;99239.00;;;;2077137;28;20716;-59
2024/02/07 04:06:24;;;;;;;2.58;0.82;;;;;16.60;99226.00;;;;2075800;28;20625;-60
2024/02/07 04:07:25;;;;;;;2.58;1.13;;;;;16.60;99229.00;;;;2076993;28;20229;-60
2024/02/07 04:08:25;;;;;;;2.10;0.93;;;;;16.60;99228.00;;;;2076297;28;20229;-60
2024/02/07 04:09:25;;;;;;;2.70;1.13;;;;;16.50;99231.00;;;;2068257;28;20219;-59
2024/02/07 04:10:26;;;;;;;2.13;1.00;;;;;16.50;99228.00;;;;2074591;28;20251;-59
2024/02/07 05:15:49;;;;;;;2.15;0.90;;;;;16.50;99312.00;;;;2076592;28;20230;-59
2024/02/07 05:16:49;;;;;;;2.43;1.20;;;;;16.50;99315.00;;;;2076223;28;20229;-59
2024/02/07 05:17:50;;;;;;;1.70;0.67;;;;;16.50;99314.00;;;;2077201;28;20227;-58
2024/02/07 05:18:50;;;;;;;1.55;0.68;;;;;16.50;99311.00;;;;2076057;28;21317;-60
2024/02/07 05:19:51;;;;;;;1.80;0.80;;;;;16.50;99318.00;;;;2067602;28;20215;-61
2024/02/07 05:20:51;;;;;;;2.83;0.90;;;;;16.50;99322.00;;;;2076689;28;20224;-58
2024/02/07 05:21:51;;;;;;;2.87;1.10;;;;;16.50;99322.00;;;;2076621;28;20241;-59
2024/02/07 05:22:52;;;;;;;2.43;1.00;;;;;16.50;99327.00;;;;2069554;28;20227;-59
2024/02/07 05:23:53;;;;;;;2.13;0.73;;;;;16.50;99317.00;;;;2075094;28;20217;-60
2024/02/07 05:24:53;;;;;;;2.17;0.70;;;;;16.50;99320.00;;;;2065352;28;20219;-61
2024/02/07 05:25:56;;;;;;;3.50;1.20;;;;;16.50;99321.00;;;;2075474;28;20225;-59
2024/02/07 05:26:56;;;;;;;1.60;0.60;;;;;16.50;99326.00;;;;2067901;28;20225;-59
2024/02/07 05:27:57;;;;;;;2.70;0.90;;;;;16.10;99320.00;;;;2076491;28;20236;-60
2024/02/07 05:28:57;;;;;;;2.77;1.00;;;;;16.50;99329.00;;;;2077150;28;20233;-60
2024/02/07 05:29:57;;;;;;;1.73;0.77;;;;;16.50;99326.00;;;;2067567;28;20226;-60
2024/02/07 05:30:58;;;;;;;1.77;0.73;;;;;16.50;99336.00;;;;2076978;28;20304;-60
2024/02/07 05:31:58;;;;;;;1.80;0.70;;;;;16.50;99327.00;;;;2076687;28;20218;-60
2024/02/07 05:32:59;;;;;;;1.70;0.77;;;;;16.50;99333.00;;;;2076340;28;20273;-60
2024/02/07 05:33:59;;;;;;;2.63;0.97;;;;;16.50;99332.00;;;;2074972;28;20226;-61
2024/02/07 05:34:59;;;;;;;2.10;0.80;;;;;16.50;99338.00;;;;2066615;28;20228;-60
2024/02/07 05:35:59;;;;;;;1.87;0.83;;;;;16.50;99330.00;;;;2075855;28;20226;-60
2024/02/07 05:37:03;;;;;;;2.73;0.70;;;;;16.50;99337.00;;;;2077029;28;20219;-59
2024/02/07 05:38:03;;;;;;;1.80;0.80;;;;;16.50;99333.00;;;;2075699;28;20580;-60
2024/02/07 05:39:03;;;;;;;1.80;0.90;;;;;16.50;99332.00;;;;2076827;28;20222;-61
2024/02/07 05:40:05;;;;;;;2.20;0.90;;;;;16.50;99339.00;;;;2066946;28;20248;-60
2024/02/07 05:41:05;;;;;;;2.85;1.13;;;;;16.50;99339.00;;;;2077154;28;20303;-61
2024/02/07 05:42:06;;;;;;;2.60;1.40;;;;;16.50;99337.00;;;;2075919;28;20221;-60
2024/02/07 05:43:06;;;;;;;2.13;0.90;;;;;16.50;99339.00;;;;2069184;28;20208;-60
2024/02/07 05:44:07;;;;;;;2.23;0.70;;;;;16.50;99339.00;;;;2066868;28;20217;-60
2024/02/07 05:45:08;;;;;;;1.80;0.70;;;;;16.50;99337.00;;;;2081943;28;20216;-59
2024/02/07 05:46:09;;;;;;;2.00;0.90;;;;;16.50;99339.00;;;;2075691;28;20759;-60
2024/02/07 05:47:09;;;;;;;1.70;0.90;;;;;16.50;99343.00;;;;2074810;28;20233;-59
2024/02/07 05:48:09;;;;;;;1.70;0.60;;;;;16.50;99345.00;;;;2070265;28;20272;-59
2024/02/07 05:49:13;;;;;;;2.20;0.77;;;;;16.50;99342.00;;;;2066928;28;20220;-59
2024/02/07 05:50:15;;;;;;;2.17;0.90;;;;;16.50;99354.00;;;;2077008;28;20225;-59
2024/02/07 05:51:19;;;;;;;1.95;0.82;;;;;16.50;99349.00;;;;2076568;28;20219;-59
2024/02/07 05:52:20;;;;;;;1.60;0.63;;;;;16.50;99343.00;;;;2068957;28;20682;-60
2024/02/07 05:53:22;;;;;;;1.80;0.93;;;;;16.50;99338.00;;;;2071833;28;20543;-59
2024/02/07 05:54:22;;;;;;;1.67;0.60;;;;;16.50;99342.00;;;;2064361;28;20220;-60
2024/02/07 05:55:23;;;;;;;1.83;0.80;;;;;16.50;99340.00;;;;2076485;28;20247;-60
2024/02/07 05:56:23;;;;;;;2.40;0.93;;;;;16.50;99340.00;;;;2075389;28;20229;-59
2024/02/07 05:57:24;;;;;;;2.30;0.67;;;;;16.50;99342.00;;;;2077244;28;20217;-59
2024/02/07 05:58:24;;;;;;;1.70;0.70;;;;;16.10;99340.00;;;;2076127;28;20223;-59
2024/02/07 05:59:24;;;;;;;2.17;0.77;;;;;16.50;99367.00;;;;2068331;28;20282;-58
2024/02/07 06:00:25;;;;;;;2.20;0.87;;;;;16.50;99355.00;;;;2075294;28;20222;-60
2024/02/07 06:01:26;;;;;;;1.50;0.60;;;;;16.50;99347.00;;;;2079257;28;20666;-59
2024/02/07 06:02:27;;;;;;;1.70;0.80;;;;;16.50;99351.00;;;;2078961;28;20239;-61
2024/02/07 06:03:27;;;;;;;3.07;1.00;;;;;16.50;99357.00;;;;2077762;28;20233;-59
2024/02/07 06:04:28;;;;;;;2.30;0.70;;;;;16.50;99346.00;;;;2068933;28;20473;-59
2024/02/07 06:05:28;;;;;;;4.03;0.90;;;;;16.50;99349.00;;;;2078501;28;20221;-59
2024/02/07 06:06:29;;;;;;;2.13;0.60;;;;;16.40;99350.00;;;;2076938;28;20288;-58
2024/02/07 06:07:30;;;;;;;1.70;0.60;;;;;16.50;99354.00;;;;2076809;28;20297;-59
2024/02/07 06:08:31;;;;;;;2.20;0.90;;;;;16.50;99360.00;;;;2076836;28;20272;-60
2024/02/07 06:09:31;;;;;;;1.70;0.57;;;;;16.50;99241.00;;;;2068727;28;20454;-61
2024/02/07 06:10:34;;;;;;;2.00;0.80;;;;;16.50;99353.00;;;;2078013;28;20218;-59
2024/02/07 06:11:41;;;;;;;1.92;1.00;;;;;16.50;99354.00;;;;2078579;28;20230;-60
2024/02/07 06:12:44;;;;;;;2.67;0.70;;;;;16.50;99347.00;;;;2077916;28;20301;-60